createdAt,value
2023-02-06T00:04:14.273Z,7.80
2023-02-06T00:09:14.253Z,7.50
2023-02-06T00:14:14.210Z,6.40
2023-02-06T00:19:14.138Z,8.40
2023-02-06T00:24:14.075Z,6.80
2023-02-06T00:29:14.046Z,7.00
2023-02-06T00:34:13.983Z,6.70
2023-02-06T00:39:13.964Z,7.50
2023-02-06T00:44:13.858Z,5.70
2023-02-06T00:49:13.829Z,6.10
2023-02-06T00:54:13.796Z,6.80
2023-02-06T00:59:13.715Z,7.50
2023-02-06T01:04:13.658Z,6.10
2023-02-06T01:09:13.628Z,7.20
2023-02-06T01:14:13.565Z,7.30
2023-02-06T01:19:14.022Z,6.70
2023-02-06T01:24:13.432Z,6.40
2023-02-06T01:29:13.380Z,6.60
2023-02-06T01:34:13.366Z,8.10
2023-02-06T01:39:13.311Z,7.30
2023-02-06T01:44:13.271Z,6.90
2023-02-06T01:49:13.250Z,6.40
2023-02-06T01:54:13.122Z,7.90
2023-02-06T01:59:13.065Z,6.70
2023-02-06T02:04:13.030Z,6.10
2023-02-06T02:09:14.360Z,6.90
2023-02-06T02:14:12.886Z,6.80
2023-02-06T02:19:12.919Z,6.50
2023-02-06T02:24:12.817Z,7.20
2023-02-06T02:29:12.755Z,7.40
2023-02-06T02:34:12.713Z,8.30
2023-02-06T02:39:12.661Z,8.90
2023-02-06T02:44:12.575Z,7.00
2023-02-06T02:49:12.541Z,7.60
2023-02-06T02:54:12.477Z,6.80
2023-02-06T02:59:12.421Z,7.20
2023-02-06T03:04:12.369Z,8.30
2023-02-06T03:09:12.317Z,7.70
2023-02-06T03:14:12.284Z,6.60
2023-02-06T03:19:12.224Z,8.60
2023-02-06T03:24:12.165Z,8.00
2023-02-06T03:29:12.138Z,8.70
2023-02-06T03:34:12.063Z,8.60
2023-02-06T03:39:11.996Z,8.10
2023-02-06T03:44:11.926Z,8.30
2023-02-06T03:49:11.910Z,9.40
2023-02-06T03:54:11.877Z,8.30
2023-02-06T03:59:11.793Z,8.20
2023-02-06T04:04:11.760Z,10.00
2023-02-06T04:09:11.695Z,8.50
2023-02-06T04:14:11.617Z,8.60
2023-02-06T04:19:11.582Z,11.60
2023-02-06T04:24:11.532Z,16.10
2023-02-06T04:29:11.494Z,13.20
2023-02-06T04:34:11.435Z,10.30
2023-02-06T04:39:11.364Z,10.40
2023-02-06T04:44:11.296Z,10.90
2023-02-06T04:49:11.252Z,10.50
2023-02-06T04:54:11.222Z,11.30
2023-02-06T04:59:11.168Z,12.60
2023-02-06T05:04:11.110Z,10.80
2023-02-06T05:09:11.026Z,10.10
2023-02-06T05:14:10.993Z,9.90
2023-02-06T05:19:10.893Z,10.20
2023-02-06T05:24:10.896Z,12.00
2023-02-06T05:29:10.822Z,11.00
2023-02-06T05:34:10.781Z,12.40
2023-02-06T05:39:10.727Z,10.90
2023-02-06T05:44:10.639Z,12.10
2023-02-06T05:49:10.595Z,10.60
2023-02-06T05:54:10.552Z,12.30
2023-02-06T05:59:10.491Z,10.50
2023-02-06T06:04:10.497Z,11.70
2023-02-06T06:09:10.396Z,10.90
2023-02-06T06:14:10.352Z,10.60
2023-02-06T06:19:10.278Z,9.20
2023-02-06T06:24:10.261Z,14.00
2023-02-06T06:29:10.197Z,19.20
2023-02-06T06:34:10.119Z,14.80
2023-02-06T06:39:10.076Z,16.80
2023-02-06T06:44:10.006Z,19.90
2023-02-06T06:49:09.983Z,19.50
2023-02-06T06:54:09.905Z,21.70
2023-02-06T06:59:09.842Z,22.60
2023-02-06T07:04:09.838Z,21.90
2023-02-06T07:09:09.772Z,21.90
2023-02-06T07:14:09.721Z,26.40
2023-02-06T07:19:09.640Z,29.60
2023-02-06T07:24:09.587Z,30.00
2023-02-06T07:29:09.554Z,36.20
2023-02-06T07:34:09.489Z,27.80
2023-02-06T07:39:09.471Z,23.10
2023-02-06T07:44:09.382Z,33.90
2023-02-06T07:49:09.350Z,33.20
2023-02-06T07:54:09.271Z,32.00
2023-02-06T07:59:09.227Z,29.00
2023-02-06T08:04:09.220Z,26.20
2023-02-06T08:09:09.143Z,28.50
2023-02-06T08:14:09.039Z,29.00
2023-02-06T08:19:09.037Z,20.70
2023-02-06T08:24:08.945Z,21.70
2023-02-06T08:29:08.913Z,31.60
2023-02-06T08:34:08.861Z,24.30
2023-02-06T08:39:08.780Z,28.70
2023-02-06T08:44:08.747Z,23.80
2023-02-06T08:49:08.686Z,26.20
2023-02-06T08:54:08.617Z,22.90
2023-02-06T08:59:08.593Z,26.40
2023-02-06T09:04:08.509Z,23.60
2023-02-06T09:09:08.477Z,27.20
2023-02-06T09:14:08.425Z,24.20
2023-02-06T09:19:08.320Z,26.70
2023-02-06T09:24:08.310Z,36.20
2023-02-06T09:29:08.431Z,26.30
2023-02-06T09:34:08.192Z,26.50
2023-02-06T09:39:08.120Z,20.10
2023-02-06T09:44:08.051Z,15.50
2023-02-06T09:49:08.036Z,13.30
2023-02-06T09:54:07.969Z,12.90
2023-02-06T09:59:07.936Z,13.00
2023-02-06T10:04:07.871Z,12.40
2023-02-06T10:09:07.818Z,12.20
2023-02-06T10:14:07.786Z,12.10
2023-02-06T10:19:07.703Z,12.80
2023-02-06T10:24:07.641Z,13.90
2023-02-06T10:29:07.569Z,16.30
2023-02-06T10:34:07.540Z,17.50
2023-02-06T10:39:07.490Z,19.30
2023-02-06T10:44:07.438Z,17.80
2023-02-06T10:49:07.388Z,19.40
2023-02-06T10:54:07.310Z,19.40
2023-02-06T10:59:07.287Z,17.60
2023-02-06T11:04:07.258Z,17.50
2023-02-06T11:09:07.247Z,17.60
2023-02-06T11:14:07.097Z,15.90
2023-02-06T11:19:07.060Z,16.40
2023-02-06T11:24:07.006Z,18.90
2023-02-06T11:29:15.816Z,15.00
2023-02-06T11:34:06.935Z,15.80
2023-02-06T11:39:06.834Z,13.90
2023-02-06T11:44:06.818Z,13.10
2023-02-06T11:49:06.785Z,14.80
2023-02-06T11:54:06.696Z,15.60
2023-02-06T11:59:07.160Z,15.40
2023-02-06T12:04:06.604Z,15.60
2023-02-06T12:09:06.556Z,14.20
2023-02-06T12:14:06.529Z,14.60
2023-02-06T12:19:06.475Z,14.20
2023-02-06T12:24:06.386Z,18.00
2023-02-06T12:29:06.331Z,19.00
2023-02-06T12:34:06.257Z,18.70
2023-02-06T12:39:06.228Z,16.90
2023-02-06T12:44:06.134Z,17.60
2023-02-06T12:49:06.132Z,18.60
2023-02-06T12:54:06.099Z,18.30
2023-02-06T12:59:06.067Z,18.20
2023-02-06T13:04:05.910Z,18.00
2023-02-06T13:09:05.856Z,17.80
2023-02-06T13:14:05.853Z,16.10
2023-02-06T13:19:05.824Z,15.50
2023-02-06T13:24:05.737Z,14.30
2023-02-06T13:29:05.686Z,17.50
2023-02-06T13:34:05.638Z,19.00
2023-02-06T13:39:05.614Z,18.50
2023-02-06T13:44:05.523Z,18.10
2023-02-06T13:49:05.482Z,19.00
2023-02-06T13:54:05.416Z,18.80
2023-02-06T13:59:05.340Z,16.90
2023-02-06T14:04:05.305Z,18.20
2023-02-06T14:09:05.470Z,18.80
2023-02-06T14:14:05.284Z,16.90
2023-02-06T14:19:05.242Z,17.30
2023-02-06T14:24:05.103Z,19.20
2023-02-06T14:29:05.020Z,21.30
2023-02-06T14:34:05.084Z,19.30
2023-02-06T14:39:04.947Z,20.10
2023-02-06T14:44:04.889Z,17.80
2023-02-06T14:49:04.863Z,17.70
2023-02-06T14:54:04.756Z,17.80
2023-02-06T14:59:04.718Z,19.70
2023-02-06T15:04:04.589Z,21.00
2023-02-06T15:09:04.571Z,18.60
2023-02-06T15:14:04.547Z,17.80
2023-02-06T15:19:04.474Z,15.10
2023-02-06T15:24:04.417Z,15.30
2023-02-06T15:29:04.389Z,12.30
2023-02-06T15:34:04.338Z,12.60
2023-02-06T15:39:04.250Z,10.70
2023-02-06T15:44:04.232Z,10.10
2023-02-06T15:49:04.178Z,9.50
2023-02-06T15:54:04.149Z,8.60
2023-02-06T15:59:04.067Z,8.90
2023-02-06T16:04:04.015Z,11.70
2023-02-06T16:09:03.932Z,9.30
2023-02-06T16:14:04.275Z,9.10
2023-02-06T16:19:03.818Z,9.10
2023-02-06T16:24:03.824Z,10.10
2023-02-06T16:29:03.762Z,9.40
2023-02-06T16:34:03.708Z,10.30
2023-02-06T16:39:04.766Z,10.50
2023-02-06T16:44:03.560Z,10.20
2023-02-06T16:49:03.523Z,12.50
2023-02-06T16:54:03.447Z,12.10
2023-02-06T16:59:03.429Z,11.10
2023-02-06T17:04:03.348Z,11.30
2023-02-06T17:09:03.344Z,12.00
2023-02-06T17:14:03.293Z,16.40
2023-02-06T17:19:03.188Z,12.20
2023-02-06T17:24:03.099Z,12.90
2023-02-06T17:29:11.901Z,12.70
2023-02-06T17:34:03.015Z,13.40
2023-02-06T17:39:02.937Z,11.80
2023-02-06T17:44:02.901Z,12.10
2023-02-06T17:49:02.839Z,10.80
2023-02-06T17:54:03.313Z,12.00
2023-02-06T17:59:02.709Z,12.70
2023-02-06T18:04:02.663Z,10.40
2023-02-06T18:09:02.593Z,9.70
2023-02-06T18:14:02.547Z,25.30
2023-02-06T18:19:02.518Z,10.70
2023-02-06T18:24:02.441Z,11.50
2023-02-06T18:29:02.415Z,12.60
2023-02-06T18:34:02.334Z,12.50
2023-02-06T18:39:02.300Z,12.40
2023-02-06T18:44:02.237Z,10.70
2023-02-06T18:49:02.188Z,13.10
2023-02-06T18:54:02.103Z,13.40
2023-02-06T18:59:02.088Z,11.20
2023-02-06T19:04:02.026Z,9.40
2023-02-06T19:09:01.943Z,14.00
2023-02-06T19:14:01.915Z,11.10
2023-02-06T19:19:01.874Z,11.20
2023-02-06T19:24:01.808Z,10.50
2023-02-06T19:29:01.775Z,11.70
2023-02-06T19:34:01.713Z,13.50
2023-02-06T19:39:01.667Z,13.50
2023-02-06T19:44:01.599Z,12.40
2023-02-06T19:49:01.563Z,11.70
2023-02-06T19:54:01.474Z,15.60
2023-02-06T19:59:01.470Z,13.30
2023-02-06T20:04:01.410Z,12.80
2023-02-06T20:09:01.302Z,15.90
2023-02-06T20:14:01.312Z,16.30
2023-02-06T20:19:01.212Z,16.10
2023-02-06T20:24:01.142Z,16.30
2023-02-06T20:29:01.154Z,15.20
2023-02-06T20:34:01.069Z,16.00
2023-02-06T20:39:00.992Z,18.70
2023-02-06T20:44:00.974Z,20.70
2023-02-06T20:49:00.900Z,21.20
2023-02-06T20:54:00.856Z,25.00
2023-02-06T20:59:00.829Z,22.70
2023-02-06T21:04:00.740Z,19.20
2023-02-06T21:09:00.680Z,16.30
2023-02-06T21:14:00.683Z,25.40
2023-02-06T21:19:00.549Z,35.80
2023-02-06T21:24:00.540Z,18.50
2023-02-06T21:29:00.473Z,19.20
2023-02-06T21:34:00.444Z,20.90
2023-02-06T21:39:00.387Z,18.80
2023-02-06T21:44:00.310Z,40.30
2023-02-06T21:49:00.281Z,25.40
2023-02-06T21:54:00.232Z,20.10
2023-02-06T21:59:00.161Z,20.70
2023-02-06T22:04:00.120Z,21.50
2023-02-06T22:09:00.040Z,22.30
2023-02-06T22:14:00.055Z,23.10
2023-02-06T22:18:59.940Z,25.80
2023-02-06T22:23:59.887Z,24.10
2023-02-06T22:28:59.861Z,23.30
2023-02-06T22:33:59.771Z,33.10
2023-02-06T22:38:59.713Z,30.80
2023-02-06T22:43:59.683Z,26.50
2023-02-06T22:48:59.653Z,24.70
2023-02-06T22:53:59.523Z,23.20
2023-02-06T22:58:59.511Z,24.40
2023-02-06T23:03:59.482Z,24.00
2023-02-06T23:08:59.396Z,25.70
2023-02-06T23:13:59.331Z,24.30
2023-02-06T23:18:59.323Z,23.10
2023-02-06T23:23:59.255Z,25.40
2023-02-06T23:31:22.773Z,28.80
2023-02-06T23:36:22.708Z,29.60
2023-02-06T23:41:22.641Z,28.00
2023-02-06T23:46:22.652Z,25.00
2023-02-06T23:51:22.513Z,26.90
2023-02-06T23:56:22.513Z,26.10
